Aérodrome :







RETROUVEZ-NOUS SUR...

 
LOGIN :

S'inscrire | Disclaimer

   EN    FR    IT 

 









Légende :    VFR   VFR Marginal   IFR   IFR Intensif   IFR Très Intensif
Visi : 
Plafond : 
>= 8 km
>= 3000ft
5 à 8 km
1000 à 3000 ft
1500m à 5 km
500 à 1000 ft
800 à 1500m
200 à 500 ft
< 800m
< 200 ft
Symboles :   Orages  Brouillard  Fortes neiges  Fortes précipitations  Vent > 20 kt






- Altitude de l'aérodrome : 68 ft
- Code IATA : YFC


CYFC - Fredericton

DERNIER METAR :
  • 260900Z AUTO 05008KT 9SM OVC014 M02/M03 A2995 RMK PRESFR SLP146

METARs EXPIRÉS :
  • 260800Z AUTO 06010KT 9SM OVC014 M03/M03 A3000 RMK SLP163
  • 260717Z AUTO 06010KT 9SM OVC012 M03/M04 A3000 RMK PRESFR SLP163
  • 260705Z AUTO 07008KT 040V150 9SM -SN OVC010 M03/M04 A3003 RMK SLP172
  • 260600Z AUTO 05006KT 9SM OVC010 M03/M04 A3006 RMK SLP181

TAF TAF CYFC
Valide du 26 à 06h jusqu'au 26 à 18h UTC


260538Z 2606/2618 07006KT 6SM BR OVC010
TEMPO 2606/2609 11/2SM BR BKN006
PROB30 2606/2609 3/4SM -FZDZ BR OVC004
FM260900 06008KT 6SM -FZRA BR OVC006
TEMPO 2609/2613 11/2SM -FZRA BR OVC004
FM261300 09010G20KT 11/2SM -RA BR OVC004
PROB30 2613/2614 2SM -FZRA BR RMK FCST BASED ON AUTO OBS. NXT FCST BY 261200Z



MET'MAP, la Météo Aéronautique d'un coup d'oeil ! - Copyright ORBIFLY Décembre 2007 - Disclaimer

ORBIFLY MET'MAP TEAM :

Programmation & Développement : Alexandra Zaïnal
Sur une idée originale de : Baudouin d'Aumeries
Assistance à la programmation : Marc-Olivier Méhu
Soutien technique & logistique : Manuel Goepfert

Contact : metmap@orbifly.com




SOURCES & CREDITS :

   NOAA